»·PEaware :: N872SP KONT-KRNM

N872SP :: KONT-KRNM

FLIGHT INFORMATION

Flight Status: Arrived
Operator: Privately registered:
United States
More flights under this callsign
Pilot: Anonymous 30110 (30110)
Aircraft: CESSNA 172 SKYHAWK
(C172)
More flights by this aircraft type
Origin: KONT Ontario Intl
United States
Destination: KRNM Ramona
United States
More flights between these airports :: More routes between these airports
Route:
File this flight plan on PilotEdge
Remarks:
Altitude:
(Current/Filed)
5,500ft
Speed:
(Current/Filed)
110kts
Departed: 14-Nov-20 08:17 PM
Arrived: 14-Nov-20 08:57 PM
Distance/Time
Traveled:
70nm/0:40
Distance/Time
To Go:
Arrived

Flight Plot

Page will automatically refresh every two minutes.


Map Options




Map Legend


Flown Route
Filed Route
Departure Airport
Arrival Airport
Navaid (VOR, NDB)
Fix

Horizontal Profiles

Position Reports

Time Latitude Longitude Heading Altitude Ground
Speed
14-Nov-20 19:52 34.051687 -117.603170 269 909ft 0kts
14-Nov-20 19:53 34.051687 -117.603170 269 909ft 0kts
14-Nov-20 19:54 34.051687 -117.603170 269 909ft 0kts
14-Nov-20 19:55 34.051687 -117.603170 269 909ft 0kts
14-Nov-20 19:56 34.051687 -117.603170 269 909ft 0kts
14-Nov-20 19:57 34.051687 -117.603170 269 909ft 0kts
14-Nov-20 19:58 34.051687 -117.603170 269 909ft 0kts
14-Nov-20 19:59 34.051687 -117.603170 269 909ft 0kts
14-Nov-20 20:00 34.051687 -117.603170 269 909ft 0kts
14-Nov-20 20:01 34.051687 -117.603170 269 909ft 0kts
14-Nov-20 20:02 34.051687 -117.603170 269 909ft 0kts
14-Nov-20 20:03 34.052466 -117.603199 3 912ft 5kts
14-Nov-20 20:04 34.053239 -117.603687 311 915ft 0kts
14-Nov-20 20:05 34.053818 -117.600104 90 915ft 16kts
14-Nov-20 20:06 34.053843 -117.597170 89 915ft 5kts
14-Nov-20 20:07 34.053849 -117.592690 89 915ft 16kts
14-Nov-20 20:08 34.053850 -117.587791 89 915ft 13kts
14-Nov-20 20:09 34.053846 -117.583489 87 915ft 11kts
14-Nov-20 20:09 34.053851 -117.582468 7 916ft 0kts
14-Nov-20 20:11 34.053851 -117.582468 6 916ft 0kts
14-Nov-20 20:11 34.053851 -117.582468 6 916ft 0kts
14-Nov-20 20:13 34.053851 -117.582468 6 916ft 0kts
14-Nov-20 20:13 34.053851 -117.582468 6 916ft 0kts
14-Nov-20 20:14 34.054026 -117.582485 353 917ft 0kts
14-Nov-20 20:15 34.054048 -117.582489 351 917ft 1kts
14-Nov-20 20:16 34.054849 -117.594188 267 1177ft 78kts
14-Nov-20 20:17 34.044017 -117.609663 153 2150ft 83kts
14-Nov-20 20:18 34.024050 -117.594943 152 2921ft 104kts
14-Nov-20 20:19 33.997012 -117.577049 142 3574ft 97kts
14-Nov-20 20:20 33.978978 -117.556503 136 4493ft 88kts
14-Nov-20 20:21 33.957030 -117.542747 151 5271ft 90kts
14-Nov-20 20:22 33.931525 -117.524583 150 5475ft 119kts
14-Nov-20 20:23 33.901612 -117.506151 151 5463ft 120kts
14-Nov-20 20:24 33.871181 -117.489221 152 5464ft 121kts
14-Nov-20 20:25 33.843289 -117.466778 141 5472ft 120kts
14-Nov-20 20:26 33.815159 -117.445207 153 5476ft 120kts
14-Nov-20 20:27 33.784876 -117.427837 148 5482ft 120kts
14-Nov-20 20:28 33.756923 -117.405620 152 5483ft 120kts
14-Nov-20 20:29 33.726272 -117.389291 154 5498ft 120kts
14-Nov-20 20:30 33.696556 -117.371344 138 5491ft 120kts
14-Nov-20 20:31 33.670377 -117.345898 152 5472ft 122kts
14-Nov-20 20:32 33.639553 -117.330650 166 5498ft 120kts
14-Nov-20 20:33 33.611097 -117.310239 143 5493ft 121kts
14-Nov-20 20:34 33.583418 -117.287501 145 5494ft 121kts
14-Nov-20 20:35 33.553807 -117.267825 155 5471ft 122kts
14-Nov-20 20:36 33.523753 -117.248740 150 5453ft 121kts
14-Nov-20 20:37 33.494499 -117.229132 152 5498ft 119kts
14-Nov-20 20:38 33.464276 -117.211808 154 5511ft 120kts
14-Nov-20 20:39 33.435155 -117.191910 149 5514ft 121kts
14-Nov-20 20:40 33.408960 -117.166648 144 5514ft 121kts
14-Nov-20 20:41 33.378848 -117.147104 157 5455ft 123kts
14-Nov-20 20:42 33.350499 -117.124873 146 5430ft 122kts
14-Nov-20 20:43 33.320623 -117.105722 156 5401ft 123kts
14-Nov-20 20:44 33.290798 -117.087342 146 5461ft 120kts
14-Nov-20 20:45 33.261488 -117.068211 158 5481ft 121kts
14-Nov-20 20:46 33.233813 -117.047436 151 5093ft 116kts
14-Nov-20 20:47 33.205016 -117.030599 154 4549ft 115kts
14-Nov-20 20:48 33.177396 -117.011972 141 4085ft 110kts
14-Nov-20 20:49 33.152270 -116.989775 150 3565ft 116kts
14-Nov-20 20:50 33.123365 -116.974916 161 3115ft 114kts
14-Nov-20 20:51 33.095665 -116.957427 144 2659ft 113kts
14-Nov-20 20:52 33.069536 -116.938665 151 2403ft 96kts
14-Nov-20 20:53 33.050478 -116.917345 122 2349ft 93kts
14-Nov-20 20:54 33.043282 -116.889488 117 2278ft 73kts
14-Nov-20 20:55 33.037520 -116.903860 279 1468ft 64kts
14-Nov-20 20:56 33.039470 -116.915049 11 1392ft 9kts
14-Nov-20 20:57 33.039529 -116.915033 11 1392ft 0kts
14-Nov-20 20:58 33.040131 -116.913734 291 1392ft 7kts
14-Nov-20 20:59 33.040035 -116.913915 177 1392ft 0kts

Navigation Log

Ident Type
Flight plan parsing failed, navigation log unavailable